createdAt,value
2019-01-18T00:00:24.000Z,34.8
2019-01-18T00:10:24.000Z,34.8
2019-01-18T00:20:24.000Z,35.5
2019-01-18T00:30:24.000Z,35.2
2019-01-18T00:40:24.000Z,35.2
2019-01-18T00:50:24.000Z,35.2
2019-01-18T01:00:24.000Z,35.2
2019-01-18T01:10:24.000Z,35.4
2019-01-18T01:20:24.000Z,35.3
2019-01-18T01:30:24.000Z,35.3
2019-01-18T01:40:24.000Z,35.5
2019-01-18T01:50:24.000Z,35.4
2019-01-18T02:00:24.000Z,35.4
2019-01-18T02:10:24.000Z,35.6
2019-01-18T02:20:25.000Z,35
2019-01-18T02:30:24.000Z,35.4
2019-01-18T02:40:25.000Z,35.2
2019-01-18T02:50:25.000Z,35.2
2019-01-18T03:00:25.000Z,37
2019-01-18T03:10:25.000Z,35.6
2019-01-18T03:20:25.000Z,35.6
2019-01-18T03:30:25.000Z,35.2
2019-01-18T03:40:25.000Z,35.2
2019-01-18T03:50:25.000Z,34.9
2019-01-18T04:00:25.000Z,34.9
2019-01-18T04:10:25.000Z,34.9
2019-01-18T04:20:25.000Z,35
2019-01-18T04:30:25.000Z,34.7
2019-01-18T04:40:25.000Z,34.8
2019-01-18T04:50:25.000Z,34.9
2019-01-18T05:00:25.000Z,34.8
2019-01-18T05:10:25.000Z,35.1
2019-01-18T05:20:25.000Z,34.7
2019-01-18T05:30:25.000Z,34.7
2019-01-18T05:40:25.000Z,34.6
2019-01-18T05:50:25.000Z,34.7
2019-01-18T06:00:25.000Z,34.9
2019-01-18T06:10:25.000Z,34.7
2019-01-18T06:20:25.000Z,34.6
2019-01-18T06:30:25.000Z,34.7
2019-01-18T06:40:25.000Z,34.8
2019-01-18T06:50:25.000Z,45.3
2019-01-18T07:00:27.000Z,45.1
2019-01-18T07:10:25.000Z,46.9
2019-01-18T07:20:25.000Z,47.8
2019-01-18T07:30:25.000Z,48.2
2019-01-18T07:50:25.000Z,47.2
2019-01-18T08:00:29.000Z,47.7
2019-01-18T08:10:25.000Z,47.5
2019-01-18T08:20:25.000Z,47.6
2019-01-18T08:30:25.000Z,47.5
2019-01-18T08:40:25.000Z,47.5
2019-01-18T08:50:25.000Z,47.5
2019-01-18T09:00:25.000Z,47.2
2019-01-18T09:10:25.000Z,47.4
2019-01-18T09:20:25.000Z,47.5
2019-01-18T09:30:26.000Z,47.4
2019-01-18T09:40:26.000Z,47.5
2019-01-18T09:50:26.000Z,47.6
2019-01-18T10:00:26.000Z,47.5
2019-01-18T10:10:26.000Z,47.4
2019-01-18T10:20:26.000Z,47.6
2019-01-18T10:30:26.000Z,47.7
2019-01-18T10:40:26.000Z,47.7
2019-01-18T10:50:26.000Z,47.6
2019-01-18T11:00:26.000Z,47.8
2019-01-18T11:10:26.000Z,47.8
2019-01-18T11:20:26.000Z,47.8
2019-01-18T11:30:26.000Z,48.2
2019-01-18T11:40:26.000Z,48.2
2019-01-18T11:50:26.000Z,48.3
2019-01-18T12:00:26.000Z,47
2019-01-18T12:10:26.000Z,47.8
2019-01-18T12:20:27.000Z,48.1
2019-01-18T12:30:32.000Z,48.4
2019-01-18T12:40:26.000Z,48.5
2019-01-18T12:50:26.000Z,48.6
2019-01-18T13:00:26.000Z,48.8
2019-01-18T13:10:26.000Z,48.7
2019-01-18T13:20:26.000Z,48.7
2019-01-18T13:30:26.000Z,48.5
2019-01-18T13:40:26.000Z,48.9
2019-01-18T13:50:26.000Z,48.9
2019-01-18T14:00:26.000Z,48.8
